Archival Weather

Chicago O'Hare International

Chicago, Illinois (KORD)

Report from: Saturday, August 6, 2022 1:51 PM CDT
Current time: Thursday, August 18, 2022 11:42 PM CDT

Current weather
Weather history
Weather forecast

Temperature33.9°C (93.0°F)
Heat index36.9°C (98.4°F)
Dew point20.6°C (69.1°F)
Winds 11 kts (5.7 m/s, 12.7 mph) South (190°)
Visibility10 mi. (16.1 km)
Clouds Ceiling: Broken clouds 4,600 ft. (1,402 m)
Broken clouds 25,000 ft. (7,620 m)
Altimeter30.03 in.Hg (1017 mB)
Relative humidity46 %
Density altitude2,354 ft. (718 m)
Sea-level pressure101.6 kPa (1016 mB, 30.01 in.Hg)
Remarks Automated weather observing station with precipitation discriminator
Flight conditions Visual Meteorological Conditions
Raw dataKORD 061851Z 19011KT 10SM BKN046 BKN250 34/21 A3003 RMK AO2 SLP163 T03390206
An unhandled exception has occurred. See browser dev tools for details. Reload 🗙